createdAt,value
2023-01-23T00:01:31.536Z,89.55
2023-01-23T00:04:00.824Z,89.77
2023-01-23T00:06:29.692Z,89.83
2023-01-23T00:08:57.930Z,90.00
2023-01-23T00:11:28.520Z,90.03
2023-01-23T00:13:57.774Z,90.30
2023-01-23T00:16:28.700Z,90.72
2023-01-23T00:18:57.116Z,91.22
2023-01-23T00:21:27.652Z,90.62
2023-01-23T00:23:58.095Z,90.42
2023-01-23T00:26:29.042Z,90.40
2023-01-23T00:28:57.208Z,90.83
2023-01-23T00:31:31.346Z,90.55
2023-01-23T00:34:05.308Z,90.28
2023-01-23T00:36:36.162Z,90.83
2023-01-23T00:39:07.235Z,91.22
2023-01-23T00:41:35.156Z,91.06
2023-01-23T00:44:03.008Z,90.53
2023-01-23T00:46:30.966Z,90.37
2023-01-23T00:48:58.935Z,90.43
2023-01-23T00:51:26.850Z,90.36
2023-01-23T00:53:55.125Z,90.62
2023-01-23T00:56:23.011Z,90.59
2023-01-23T00:58:51.083Z,90.70
2023-01-23T01:01:19.567Z,91.01
2023-01-23T01:03:47.569Z,91.76
2023-01-23T01:06:16.516Z,92.57
2023-01-23T01:08:44.365Z,92.89
2023-01-23T01:11:12.250Z,92.95
2023-01-23T01:13:40.437Z,92.82
2023-01-23T01:16:08.582Z,92.81
2023-01-23T01:18:37.222Z,92.19
2023-01-23T01:21:14.274Z,91.60
2023-01-23T01:23:42.526Z,92.10
2023-01-23T01:26:11.245Z,92.25
2023-01-23T01:28:42.164Z,91.93
2023-01-23T01:31:15.464Z,92.13
2023-01-23T01:33:44.359Z,93.13
2023-01-23T01:36:15.120Z,92.67
2023-01-23T01:38:43.464Z,92.67
2023-01-23T01:41:12.458Z,92.49
2023-01-23T01:43:41.237Z,92.41
2023-01-23T01:46:18.228Z,92.61
2023-01-23T01:49:24.011Z,92.51
2023-01-23T01:52:03.470Z,92.11
2023-01-23T01:54:42.788Z,91.82
2023-01-23T01:57:21.441Z,92.25
2023-01-23T01:59:57.995Z,92.51
2023-01-23T02:02:40.648Z,92.90
2023-01-23T02:05:16.914Z,92.49
2023-01-23T02:07:51.916Z,92.51
2023-01-23T02:10:21.728Z,93.02
2023-01-23T02:12:52.582Z,92.81
2023-01-23T02:15:22.582Z,92.20
2023-01-23T02:17:54.753Z,92.07
2023-01-23T02:20:25.885Z,92.35
2023-01-23T02:23:42.594Z,92.92
2023-01-23T02:26:21.669Z,92.75
2023-01-23T02:28:55.992Z,92.75
2023-01-23T02:31:24.123Z,92.85
2023-01-23T02:33:54.433Z,92.71
2023-01-23T02:36:25.889Z,92.76
2023-01-23T02:39:07.873Z,92.43
2023-01-23T02:41:42.129Z,92.04
2023-01-23T02:44:29.181Z,91.50
2023-01-23T02:47:00.697Z,92.00
2023-01-23T02:49:29.054Z,91.73
2023-01-23T02:51:57.528Z,91.60
2023-01-23T02:54:25.713Z,91.72
2023-01-23T02:56:53.615Z,92.11
2023-01-23T02:59:40.254Z,92.10
2023-01-23T03:02:08.579Z,92.13
2023-01-23T03:04:36.596Z,92.15
2023-01-23T03:07:04.721Z,92.09
2023-01-23T03:09:33.388Z,91.64
2023-01-23T03:12:01.671Z,90.98
2023-01-23T03:14:31.733Z,91.41
2023-01-23T03:16:59.600Z,91.62
2023-01-23T03:19:27.490Z,91.61
2023-01-23T03:21:55.372Z,91.13
2023-01-23T03:24:23.211Z,90.75
2023-01-23T03:26:51.728Z,90.63
2023-01-23T03:29:43.604Z,90.51
2023-01-23T03:32:13.366Z,91.04
2023-01-23T03:34:42.022Z,91.17
2023-01-23T03:37:13.116Z,91.56
2023-01-23T03:39:59.854Z,91.72
2023-01-23T03:42:27.921Z,91.80
2023-01-23T03:44:55.961Z,91.70
2023-01-23T03:47:23.971Z,91.81
2023-01-23T03:49:52.180Z,92.11
2023-01-23T03:52:19.939Z,92.06
2023-01-23T03:54:47.795Z,92.26
2023-01-23T03:57:15.679Z,92.58
2023-01-23T03:59:43.550Z,92.32
2023-01-23T04:02:11.748Z,92.29
2023-01-23T04:04:39.746Z,91.86
2023-01-23T04:07:08.483Z,91.72
2023-01-23T04:09:37.378Z,91.58
2023-01-23T04:12:05.298Z,91.69
2023-01-23T04:14:37.546Z,92.28
2023-01-23T04:17:07.131Z,91.88
2023-01-23T04:19:35.538Z,91.70
2023-01-23T04:22:04.932Z,91.87
2023-01-23T04:24:32.798Z,92.24
2023-01-23T04:27:00.603Z,92.94
2023-01-23T04:29:28.616Z,93.59
2023-01-23T04:31:56.419Z,93.60
2023-01-23T04:34:24.378Z,92.63
2023-01-23T04:36:52.219Z,92.41
2023-01-23T04:39:20.102Z,92.10
2023-01-23T04:41:48.009Z,92.73
2023-01-23T04:44:21.862Z,93.11
2023-01-23T04:46:50.399Z,93.01
2023-01-23T04:49:19.463Z,92.76
2023-01-23T04:51:48.428Z,92.91
2023-01-23T04:54:17.382Z,93.15
2023-01-23T04:56:46.329Z,93.06
2023-01-23T04:59:14.665Z,92.74
2023-01-23T05:01:43.140Z,92.67
2023-01-23T05:04:11.271Z,93.02
2023-01-23T05:06:39.252Z,92.84
2023-01-23T05:09:07.947Z,92.33
2023-01-23T05:11:35.838Z,91.70
2023-01-23T05:14:03.897Z,91.42
2023-01-23T05:16:32.235Z,91.42
2023-01-23T05:19:00.209Z,91.84
2023-01-23T05:21:28.211Z,91.66
2023-01-23T05:23:56.148Z,91.79
2023-01-23T05:26:24.059Z,91.80
2023-01-23T05:28:52.085Z,91.77
2023-01-23T05:31:20.158Z,90.86
2023-01-23T05:33:48.211Z,90.99
2023-01-23T05:36:18.459Z,91.11
2023-01-23T05:38:46.698Z,91.29
2023-01-23T05:41:14.680Z,90.57
2023-01-23T05:43:43.612Z,90.22
2023-01-23T05:46:11.716Z,89.55
2023-01-23T05:48:39.664Z,89.46
2023-01-23T05:51:07.682Z,89.81
2023-01-23T05:53:35.567Z,89.98
2023-01-23T05:56:08.085Z,90.09
2023-01-23T05:58:35.935Z,90.53
2023-01-23T06:01:04.596Z,90.58
2023-01-23T06:03:33.050Z,90.64
2023-01-23T06:06:02.295Z,90.74
2023-01-23T06:08:30.281Z,90.65
2023-01-23T06:10:59.417Z,90.48
2023-01-23T06:13:27.956Z,90.22
2023-01-23T06:15:56.747Z,90.05
2023-01-23T06:18:24.831Z,90.10
2023-01-23T06:20:58.139Z,90.38
2023-01-23T06:23:26.468Z,90.41
2023-01-23T06:25:54.471Z,90.36
2023-01-23T06:28:22.416Z,90.21
2023-01-23T06:30:50.314Z,90.07
2023-01-23T06:33:18.233Z,90.05
2023-01-23T06:35:46.112Z,89.81
2023-01-23T06:38:14.068Z,90.16
2023-01-23T06:40:41.928Z,90.81
2023-01-23T06:43:09.802Z,90.84
2023-01-23T06:45:37.615Z,90.75
2023-01-23T06:48:05.717Z,90.94
2023-01-23T06:50:33.596Z,91.32
2023-01-23T06:53:01.621Z,91.60
2023-01-23T06:55:29.514Z,91.87
2023-01-23T06:57:57.498Z,92.23
2023-01-23T07:00:25.716Z,92.33
2023-01-23T07:02:53.897Z,92.50
2023-01-23T07:05:21.679Z,92.50
2023-01-23T07:07:51.623Z,92.70
2023-01-23T07:10:19.788Z,92.90
2023-01-23T07:12:47.779Z,93.06
2023-01-23T07:15:15.666Z,92.99
2023-01-23T07:17:43.714Z,92.96
2023-01-23T07:20:12.021Z,92.81
2023-01-23T07:22:40.537Z,92.83
2023-01-23T07:25:09.174Z,92.93
2023-01-23T07:27:37.008Z,92.85
2023-01-23T07:30:05.928Z,92.91
2023-01-23T07:32:33.734Z,92.74
2023-01-23T07:35:01.669Z,92.62
2023-01-23T07:37:29.573Z,92.40
2023-01-23T07:39:57.705Z,92.36
2023-01-23T07:42:25.963Z,92.38
2023-01-23T07:44:54.150Z,92.10
2023-01-23T07:47:22.235Z,91.98
2023-01-23T07:49:50.075Z,92.23
2023-01-23T07:52:17.887Z,92.02
2023-01-23T07:54:45.667Z,91.54
2023-01-23T07:57:13.549Z,91.72
2023-01-23T07:59:41.752Z,91.64
2023-01-23T08:02:13.377Z,91.44
2023-01-23T08:04:41.380Z,91.38
2023-01-23T08:07:09.237Z,91.13
2023-01-23T08:09:37.591Z,90.63
2023-01-23T08:12:05.640Z,90.42
2023-01-23T08:14:33.611Z,90.54
2023-01-23T08:17:01.738Z,90.61
2023-01-23T08:19:29.598Z,90.28
2023-01-23T08:21:57.868Z,90.20
2023-01-23T08:24:25.846Z,89.78
2023-01-23T08:26:53.895Z,89.54
2023-01-23T08:29:21.844Z,89.41
2023-01-23T08:31:49.961Z,89.38
2023-01-23T08:34:17.988Z,89.16
2023-01-23T08:36:46.537Z,89.18
2023-01-23T08:39:14.415Z,89.16
2023-01-23T08:41:42.248Z,88.45
2023-01-23T08:44:16.260Z,87.32
2023-01-23T08:46:46.011Z,86.90
2023-01-23T08:49:14.253Z,87.03
2023-01-23T08:51:42.190Z,87.10
2023-01-23T08:54:10.259Z,87.13
2023-01-23T08:56:38.201Z,87.36
2023-01-23T08:59:06.090Z,87.93
2023-01-23T09:01:34.047Z,87.94
2023-01-23T09:04:01.959Z,87.79
2023-01-23T09:06:29.866Z,87.88
2023-01-23T09:08:57.805Z,87.88
2023-01-23T09:11:25.701Z,87.91
2023-01-23T09:13:54.144Z,87.90
2023-01-23T09:16:22.336Z,87.87
2023-01-23T09:18:50.255Z,87.20
2023-01-23T09:21:18.125Z,87.21
2023-01-23T09:23:46.238Z,87.02
2023-01-23T09:26:15.281Z,86.51
2023-01-23T09:28:43.609Z,86.35
2023-01-23T09:31:13.553Z,86.57
2023-01-23T09:33:42.287Z,86.55
2023-01-23T09:36:11.012Z,86.69
2023-01-23T09:38:39.172Z,86.43
2023-01-23T09:41:19.362Z,86.24
2023-01-23T09:43:57.955Z,86.22
2023-01-23T09:46:43.874Z,85.92
2023-01-23T09:49:24.022Z,85.57
2023-01-23T09:51:58.449Z,86.30
2023-01-23T09:54:50.056Z,86.40
2023-01-23T09:57:28.534Z,86.31
2023-01-23T10:00:05.661Z,86.01
2023-01-23T10:02:34.179Z,86.24
2023-01-23T10:05:05.107Z,86.24
2023-01-23T10:07:59.518Z,86.09
2023-01-23T10:10:39.200Z,86.05
2023-01-23T10:13:32.222Z,85.61
2023-01-23T10:16:06.220Z,85.43
2023-01-23T10:19:12.314Z,85.08
2023-01-23T10:21:59.861Z,84.40
2023-01-23T10:24:46.542Z,83.91
2023-01-23T10:27:31.217Z,83.95
2023-01-23T10:30:20.955Z,84.28
2023-01-23T10:32:56.224Z,83.85
2023-01-23T10:35:35.811Z,83.53
2023-01-23T10:38:40.953Z,83.63
2023-01-23T10:41:21.690Z,83.68
2023-01-23T10:43:53.203Z,83.63
2023-01-23T10:46:29.351Z,83.24
2023-01-23T10:48:59.690Z,83.01
2023-01-23T10:51:49.163Z,83.01
2023-01-23T10:54:31.443Z,82.53
2023-01-23T10:57:23.574Z,82.33
2023-01-23T10:59:58.278Z,81.44
2023-01-23T11:02:37.866Z,80.78
2023-01-23T11:05:52.562Z,80.17
2023-01-23T11:08:31.300Z,78.97
2023-01-23T11:11:17.722Z,78.41
2023-01-23T11:13:48.345Z,77.68
2023-01-23T11:16:25.076Z,77.13
2023-01-23T11:18:57.222Z,76.42
2023-01-23T11:21:33.154Z,75.88
2023-01-23T11:24:10.014Z,75.04
2023-01-23T11:26:39.694Z,74.62
2023-01-23T11:29:25.849Z,74.11
2023-01-23T11:32:13.724Z,73.08
2023-01-23T11:34:49.309Z,72.76
2023-01-23T11:37:32.160Z,72.59
2023-01-23T11:40:11.160Z,71.93
2023-01-23T11:42:42.206Z,71.73
2023-01-23T11:45:23.688Z,70.91
2023-01-23T11:47:55.509Z,70.51
2023-01-23T11:50:29.296Z,70.56
2023-01-23T11:53:15.689Z,69.79
2023-01-23T11:56:18.957Z,69.49
2023-01-23T11:59:02.033Z,68.60
2023-01-23T12:05:02.934Z,68.03
2023-01-23T12:07:49.712Z,67.02
2023-01-23T12:10:28.080Z,66.86
2023-01-23T12:12:59.128Z,66.38
2023-01-23T12:15:29.695Z,66.35
2023-01-23T12:18:03.365Z,66.85
2023-01-23T12:20:36.201Z,66.59
2023-01-23T12:23:29.979Z,65.87
2023-01-23T12:26:12.044Z,65.79
2023-01-23T12:29:18.627Z,65.33
2023-01-23T12:32:05.586Z,64.56
2023-01-23T12:34:52.884Z,64.63
2023-01-23T12:37:39.640Z,65.06
2023-01-23T12:40:15.314Z,65.79
2023-01-23T12:42:43.272Z,65.84
2023-01-23T12:45:11.099Z,65.91
2023-01-23T12:47:45.605Z,65.94
2023-01-23T12:50:23.539Z,65.92
2023-01-23T12:52:59.859Z,65.45
2023-01-23T12:55:37.117Z,65.39
2023-01-23T12:58:09.747Z,65.29
2023-01-23T13:00:40.607Z,65.58
2023-01-23T13:03:22.783Z,65.87
2023-01-23T13:06:00.641Z,66.09
2023-01-23T13:08:29.094Z,66.20
2023-01-23T13:11:24.062Z,66.35
2023-01-23T13:13:52.143Z,66.52
2023-01-23T13:16:24.289Z,66.70
2023-01-23T13:19:17.031Z,66.31
2023-01-23T13:22:28.614Z,65.70
2023-01-23T13:25:18.747Z,65.96
2023-01-23T13:27:51.633Z,66.25
2023-01-23T13:30:38.044Z,66.11
2023-01-23T13:33:06.118Z,65.84
2023-01-23T13:35:40.247Z,66.11
2023-01-23T13:38:25.432Z,66.32
2023-01-23T13:41:05.081Z,66.52
2023-01-23T13:43:51.143Z,66.75
2023-01-23T14:21:40.095Z,66.97
2023-01-23T14:24:23.192Z,66.45
2023-01-23T14:27:02.517Z,66.65
2023-01-23T14:29:32.684Z,66.64
2023-01-23T14:32:00.544Z,66.71
2023-01-23T14:34:29.002Z,66.82
2023-01-23T14:37:10.802Z,67.00
2023-01-23T14:39:39.857Z,67.28
2023-01-23T14:42:16.660Z,67.13
2023-01-23T14:44:47.964Z,67.20
2023-01-23T14:47:31.075Z,67.39
2023-01-23T14:50:03.633Z,67.58
2023-01-23T14:52:31.973Z,67.80
2023-01-23T14:55:07.693Z,68.13
2023-01-23T14:57:38.752Z,68.41
2023-01-23T15:00:14.155Z,68.48
2023-01-23T15:02:43.848Z,68.81
2023-01-23T15:05:23.883Z,69.15
2023-01-23T15:08:03.218Z,69.02
2023-01-23T15:10:43.496Z,69.36
2023-01-23T15:13:24.539Z,69.33
2023-01-23T15:16:01.595Z,69.43
2023-01-23T15:18:31.730Z,69.42
2023-01-23T15:21:05.052Z,69.64
2023-01-23T15:23:37.236Z,69.65
2023-01-23T15:26:14.325Z,69.71
2023-01-23T15:28:49.461Z,69.92
2023-01-23T15:31:30.985Z,70.06
2023-01-23T15:34:14.259Z,70.37
2023-01-23T15:36:57.591Z,70.73
2023-01-23T15:40:02.785Z,70.91
2023-01-23T15:42:33.531Z,70.89
2023-01-23T15:45:02.604Z,71.15
2023-01-23T15:47:31.818Z,71.22
2023-01-23T15:50:03.209Z,71.24
2023-01-23T15:52:46.263Z,71.30
2023-01-23T15:55:14.802Z,71.57
2023-01-23T15:57:43.328Z,71.83
2023-01-23T16:00:15.384Z,71.40
2023-01-23T16:02:55.158Z,71.69
2023-01-23T16:05:30.229Z,71.97
2023-01-23T16:08:01.293Z,72.02
2023-01-23T16:10:33.713Z,71.79
2023-01-23T16:13:01.567Z,71.95
2023-01-23T16:15:33.013Z,72.07
2023-01-23T16:18:03.125Z,72.12
2023-01-23T16:20:42.481Z,72.40
2023-01-23T16:23:29.274Z,72.49
2023-01-23T16:26:00.149Z,72.41
2023-01-23T16:28:28.086Z,72.35
2023-01-23T16:30:56.072Z,72.14
2023-01-23T16:33:24.398Z,72.35
2023-01-23T16:35:52.507Z,72.38
2023-01-23T16:38:26.498Z,72.54
2023-01-23T16:40:56.747Z,73.06
2023-01-23T16:43:24.561Z,73.61
2023-01-23T16:45:56.170Z,73.68
2023-01-23T16:48:27.727Z,73.69
2023-01-23T16:51:05.297Z,73.54
2023-01-23T16:53:39.385Z,73.56
2023-01-23T16:56:11.350Z,73.90
2023-01-23T16:58:40.888Z,74.20
2023-01-23T17:01:15.791Z,74.19
2023-01-23T17:03:45.339Z,74.79
2023-01-23T17:06:16.783Z,75.15
2023-01-23T17:08:44.710Z,75.21
2023-01-23T17:11:29.927Z,75.34
2023-01-23T17:14:12.602Z,75.55
2023-01-23T17:16:41.086Z,75.76
2023-01-23T17:19:23.632Z,76.10
2023-01-23T17:21:51.895Z,76.36
2023-01-23T17:24:19.801Z,76.41
2023-01-23T17:26:47.710Z,76.53
2023-01-23T17:29:15.776Z,76.66
2023-01-23T17:31:43.903Z,76.55
2023-01-23T17:34:26.233Z,76.74
2023-01-23T17:36:56.998Z,76.72
2023-01-23T17:39:25.581Z,76.61
2023-01-23T17:41:53.965Z,77.09
2023-01-23T17:44:21.911Z,77.12
2023-01-23T17:46:54.634Z,77.20
2023-01-23T17:49:30.202Z,77.20
2023-01-23T17:52:00.815Z,77.38
2023-01-23T17:54:28.881Z,77.35
2023-01-23T17:56:56.728Z,77.57
2023-01-23T17:59:24.770Z,77.37
2023-01-23T18:01:52.769Z,77.52
2023-01-23T18:04:22.657Z,77.94
2023-01-23T18:06:50.873Z,77.90
2023-01-23T18:09:19.239Z,78.03
2023-01-23T18:11:52.438Z,77.76
2023-01-23T18:14:20.519Z,77.82
2023-01-23T18:16:50.271Z,77.80
2023-01-23T18:19:21.075Z,77.69
2023-01-23T18:21:52.332Z,77.81
2023-01-23T18:24:30.479Z,77.70
2023-01-23T18:27:01.425Z,78.04
2023-01-23T18:29:40.762Z,77.94
2023-01-23T18:32:24.087Z,77.83
2023-01-23T18:35:34.111Z,77.92
2023-01-23T18:38:18.489Z,78.13
2023-01-23T18:41:11.535Z,78.15
2023-01-23T18:43:51.692Z,78.12
2023-01-23T18:46:22.179Z,78.37
2023-01-23T18:48:50.473Z,78.39
2023-01-23T18:51:39.794Z,78.82
2023-01-23T18:54:26.574Z,78.81
2023-01-23T18:57:22.643Z,78.68
2023-01-23T18:59:50.555Z,78.61
2023-01-23T19:02:34.542Z,78.58
2023-01-23T19:05:14.421Z,78.67
2023-01-23T19:07:45.119Z,78.65
2023-01-23T19:10:15.612Z,78.61
2023-01-23T19:13:04.742Z,78.75
2023-01-23T19:16:16.369Z,78.72
2023-01-23T19:18:45.891Z,78.48
2023-01-23T19:21:27.471Z,78.29
2023-01-23T19:24:00.743Z,78.33
2023-01-23T19:26:35.086Z,78.75
2023-01-23T19:29:19.936Z,78.74
2023-01-23T19:32:03.394Z,78.31
2023-01-23T19:34:33.326Z,78.42
2023-01-23T19:37:01.203Z,78.63
2023-01-23T19:39:29.409Z,78.81
2023-01-23T19:41:59.140Z,78.56
2023-01-23T19:44:29.016Z,78.62
2023-01-23T19:46:57.088Z,78.43
2023-01-23T19:49:25.412Z,78.25
2023-01-23T19:51:53.394Z,78.41
2023-01-23T19:54:24.075Z,78.52
2023-01-23T19:56:52.532Z,78.44
2023-01-23T19:59:20.936Z,78.61
2023-01-23T20:01:52.480Z,78.66
2023-01-23T20:04:22.691Z,78.56
2023-01-23T20:06:52.496Z,78.35
2023-01-23T20:09:20.956Z,78.16
2023-01-23T20:11:49.395Z,78.23
2023-01-23T20:14:17.272Z,78.10
2023-01-23T20:16:45.276Z,78.25
2023-01-23T20:19:15.275Z,78.24
2023-01-23T20:21:43.908Z,78.20
2023-01-23T20:24:12.049Z,78.20
2023-01-23T20:26:40.888Z,78.50
2023-01-23T20:29:09.390Z,78.48
2023-01-23T20:31:37.570Z,78.40
2023-01-23T20:34:05.567Z,78.48
2023-01-23T20:36:33.519Z,78.46
2023-01-23T20:39:01.483Z,78.38
2023-01-23T20:41:29.330Z,78.28
2023-01-23T20:43:57.224Z,78.34
2023-01-23T20:46:26.830Z,78.19
2023-01-23T20:48:55.705Z,78.48
2023-01-23T20:51:23.556Z,78.78
2023-01-23T20:53:51.361Z,78.80
2023-01-23T20:56:27.392Z,78.71
2023-01-23T20:59:15.375Z,78.70
2023-01-23T21:02:02.636Z,78.70
2023-01-23T21:04:33.091Z,78.90
2023-01-23T21:07:01.437Z,78.97
2023-01-23T21:09:30.073Z,79.09
2023-01-23T21:11:58.882Z,79.39
2023-01-23T21:14:26.901Z,79.21
2023-01-23T21:16:54.827Z,79.39
2023-01-23T21:19:22.790Z,79.39
2023-01-23T21:21:51.486Z,79.38
2023-01-23T21:24:19.459Z,79.52
2023-01-23T21:26:47.455Z,79.60
2023-01-23T21:29:15.336Z,79.73
2023-01-23T21:31:43.614Z,79.78
2023-01-23T21:34:14.261Z,79.64
2023-01-23T21:36:43.728Z,79.45
2023-01-23T21:39:14.519Z,79.27
2023-01-23T21:41:42.540Z,79.33
2023-01-23T21:44:11.128Z,79.48
2023-01-23T21:46:39.426Z,79.46
2023-01-23T21:49:07.548Z,79.45
2023-01-23T21:51:35.438Z,79.34
2023-01-23T21:54:03.361Z,79.09
2023-01-23T21:56:32.266Z,78.80
2023-01-23T21:59:01.416Z,78.88
2023-01-23T22:01:32.851Z,78.92
2023-01-23T22:04:06.779Z,79.10
2023-01-23T22:06:37.016Z,79.20
2023-01-23T22:09:06.708Z,78.98
2023-01-23T22:11:34.791Z,78.93
2023-01-23T22:14:03.046Z,78.56
2023-01-23T22:16:50.942Z,78.42
2023-01-23T22:19:24.690Z,78.46
2023-01-23T22:21:55.061Z,78.22
2023-01-23T22:24:23.555Z,78.07
2023-01-23T22:26:51.817Z,78.01
2023-01-23T22:29:19.867Z,77.88
2023-01-23T22:31:47.792Z,78.01
2023-01-23T22:34:15.688Z,77.88
2023-01-23T22:36:43.623Z,78.12
2023-01-23T22:39:16.123Z,78.28
2023-01-23T22:41:45.656Z,78.26
2023-01-23T22:44:14.420Z,78.15
2023-01-23T22:46:42.888Z,78.08
2023-01-23T22:49:11.437Z,78.09
2023-01-23T22:51:39.371Z,78.34
2023-01-23T22:54:07.234Z,78.39
2023-01-23T22:56:35.125Z,78.46
2023-01-23T22:59:03.175Z,78.37
2023-01-23T23:01:31.213Z,78.49
2023-01-23T23:04:00.217Z,78.52
2023-01-23T23:06:28.756Z,78.61
2023-01-23T23:08:56.762Z,78.57
2023-01-23T23:11:27.987Z,78.77
2023-01-23T23:13:57.435Z,79.05
2023-01-23T23:16:28.479Z,79.24
2023-01-23T23:18:59.454Z,79.22
2023-01-23T23:21:31.705Z,79.16
2023-01-23T23:24:01.472Z,79.31
2023-01-23T23:26:31.460Z,79.31
2023-01-23T23:29:00.725Z,79.31
2023-01-23T23:31:29.392Z,79.29
2023-01-23T23:33:57.533Z,79.20
2023-01-23T23:36:25.589Z,79.30
2023-01-23T23:38:53.532Z,79.22
2023-01-23T23:41:21.464Z,79.17
2023-01-23T23:43:49.348Z,78.99
2023-01-23T23:46:17.894Z,78.89
2023-01-23T23:48:47.959Z,78.85
2023-01-23T23:51:18.750Z,78.90
2023-01-23T23:53:47.048Z,78.96
2023-01-23T23:56:29.115Z,78.84
2023-01-23T23:58:57.095Z,79.04
